createdAt,value
2018-12-19T00:01:26.693Z,60.91
2018-12-19T00:03:54.996Z,61.00
2018-12-19T00:06:23.355Z,61.00
2018-12-19T00:08:51.520Z,61.20
2018-12-19T00:11:19.688Z,61.18
2018-12-19T00:13:47.847Z,60.80
2018-12-19T00:16:16.013Z,60.95
2018-12-19T00:18:44.256Z,61.14
2018-12-19T00:21:12.427Z,60.72
2018-12-19T00:23:40.591Z,61.15
2018-12-19T00:26:08.784Z,60.85
2018-12-19T00:28:37.044Z,60.93
2018-12-19T00:31:05.213Z,61.12
2018-12-19T00:33:33.367Z,60.62
2018-12-19T00:36:01.579Z,61.21
2018-12-19T00:38:29.749Z,60.73
2018-12-19T00:40:57.928Z,60.65
2018-12-19T00:43:26.084Z,61.03
2018-12-19T00:45:54.263Z,60.51
2018-12-19T00:48:22.460Z,60.53
2018-12-19T00:50:50.716Z,60.84
2018-12-19T00:53:18.907Z,60.59
2018-12-19T00:55:47.179Z,60.38
2018-12-19T00:58:15.356Z,60.66
2018-12-19T01:00:43.641Z,60.58
2018-12-19T01:03:11.816Z,60.52
2018-12-19T01:05:40.088Z,60.50
2018-12-19T01:08:08.264Z,60.66
2018-12-19T01:10:36.548Z,59.95
2018-12-19T01:13:04.724Z,60.26
2018-12-19T01:15:32.879Z,60.08
2018-12-19T01:18:01.064Z,60.10
2018-12-19T01:20:29.232Z,60.12
2018-12-19T01:22:57.416Z,60.02
2018-12-19T01:25:25.575Z,60.34
2018-12-19T01:27:53.819Z,60.23
2018-12-19T01:30:22.128Z,59.96
2018-12-19T01:32:50.320Z,60.33
2018-12-19T01:35:18.490Z,60.20
2018-12-19T01:37:46.712Z,59.71
2018-12-19T01:40:14.872Z,59.81
2018-12-19T01:42:43.041Z,59.69
2018-12-19T01:45:11.248Z,59.78
2018-12-19T01:47:39.412Z,60.12
2018-12-19T01:50:07.773Z,60.01
2018-12-19T01:52:36.014Z,60.03
2018-12-19T01:55:04.368Z,59.82
2018-12-19T01:57:32.545Z,59.44
2018-12-19T02:00:00.761Z,59.68
2018-12-19T02:02:28.917Z,59.72
2018-12-19T02:04:57.084Z,59.60
2018-12-19T02:07:25.244Z,60.04
2018-12-19T02:09:53.411Z,59.77
2018-12-19T02:12:21.628Z,59.99
2018-12-19T02:14:49.891Z,59.82
2018-12-19T02:17:18.051Z,60.18
2018-12-19T02:19:46.223Z,60.01
2018-12-19T02:22:14.374Z,59.82
2018-12-19T02:24:42.820Z,59.56
2018-12-19T02:27:10.980Z,59.74
2018-12-19T02:29:39.151Z,59.10
2018-12-19T02:32:09.547Z,59.80
2018-12-19T02:34:37.836Z,59.40
2018-12-19T02:37:06.028Z,59.41
2018-12-19T02:39:36.257Z,59.68
2018-12-19T02:42:04.536Z,59.17
2018-12-19T02:44:32.718Z,59.39
2018-12-19T02:47:00.881Z,59.76
2018-12-19T02:49:29.151Z,60.07
2018-12-19T02:51:57.354Z,59.60
2018-12-19T02:54:25.717Z,59.96
2018-12-19T02:56:53.871Z,59.87
2018-12-19T02:59:22.039Z,59.47
2018-12-19T03:01:50.320Z,59.64
2018-12-19T03:04:18.504Z,59.61
2018-12-19T03:06:46.696Z,59.67
2018-12-19T03:09:14.859Z,59.12
2018-12-19T03:11:43.153Z,58.87
2018-12-19T03:14:11.312Z,59.08
2018-12-19T03:16:39.646Z,59.21
2018-12-19T03:19:07.867Z,59.81
2018-12-19T03:21:36.096Z,59.62
2018-12-19T03:24:04.347Z,59.60
2018-12-19T03:26:32.516Z,59.78
2018-12-19T03:29:00.680Z,59.72
2018-12-19T03:31:28.857Z,59.74
2018-12-19T03:33:57.031Z,59.69
2018-12-19T03:36:25.200Z,60.09
2018-12-19T03:38:53.371Z,59.71
2018-12-19T03:41:21.540Z,60.16
2018-12-19T03:43:49.843Z,59.92
2018-12-19T03:46:18.020Z,60.14
2018-12-19T03:48:51.559Z,59.93
2018-12-19T03:51:19.780Z,60.26
2018-12-19T03:53:47.953Z,60.33
2018-12-19T03:56:16.209Z,60.14
2018-12-19T03:58:44.626Z,60.33
2018-12-19T04:01:12.903Z,60.50
2018-12-19T04:03:41.079Z,60.37
2018-12-19T04:06:09.421Z,60.77
2018-12-19T04:08:37.625Z,60.84
2018-12-19T04:11:05.872Z,60.90
2018-12-19T04:13:34.079Z,60.62
2018-12-19T04:16:02.244Z,60.48
2018-12-19T04:18:30.556Z,60.67
2018-12-19T04:20:58.797Z,60.96
2018-12-19T04:23:26.970Z,60.25
2018-12-19T04:25:55.187Z,60.09
2018-12-19T04:28:23.352Z,60.36
2018-12-19T04:30:51.603Z,60.44
2018-12-19T04:33:19.789Z,60.47
2018-12-19T04:35:48.328Z,60.81
2018-12-19T04:38:16.828Z,61.33
2018-12-19T04:40:45.012Z,61.48
2018-12-19T04:43:13.200Z,61.04
2018-12-19T04:45:41.479Z,61.36
2018-12-19T04:48:09.657Z,61.23
2018-12-19T04:50:37.803Z,61.06
2018-12-19T04:53:05.991Z,61.45
2018-12-19T04:55:34.153Z,60.93
2018-12-19T04:58:02.320Z,60.84
2018-12-19T05:00:30.619Z,60.98
2018-12-19T05:02:58.809Z,61.54
2018-12-19T05:05:26.967Z,61.44
2018-12-19T05:07:55.254Z,61.60
2018-12-19T05:10:23.519Z,61.10
2018-12-19T05:12:51.703Z,61.43
2018-12-19T05:15:19.871Z,60.87
2018-12-19T05:17:48.031Z,60.80
2018-12-19T05:20:16.204Z,61.49
2018-12-19T05:22:44.355Z,60.98
2018-12-19T05:25:13.798Z,61.46
2018-12-19T05:27:42.096Z,61.43
2018-12-19T05:30:10.387Z,61.30
2018-12-19T05:32:38.547Z,61.37
2018-12-19T05:35:06.920Z,61.50
2018-12-19T05:37:35.083Z,61.08
2018-12-19T05:40:03.271Z,60.75
2018-12-19T05:42:31.428Z,61.14
2018-12-19T05:44:59.617Z,60.88
2018-12-19T05:47:27.870Z,60.89
2018-12-19T05:49:56.517Z,60.99
2018-12-19T05:52:26.423Z,61.07
2018-12-19T05:54:54.760Z,61.76
2018-12-19T05:57:22.920Z,61.88
2018-12-19T05:59:51.094Z,61.89
2018-12-19T06:02:19.252Z,61.64
2018-12-19T06:04:47.416Z,61.86
2018-12-19T06:07:15.575Z,61.64
2018-12-19T06:09:43.748Z,62.13
2018-12-19T06:12:11.903Z,62.09
2018-12-19T06:14:40.092Z,61.72
2018-12-19T06:17:08.762Z,62.05
2018-12-19T06:19:36.929Z,62.17
2018-12-19T06:22:05.116Z,62.02
2018-12-19T06:24:33.287Z,61.75
2018-12-19T06:27:01.468Z,62.11
2018-12-19T06:29:29.634Z,61.96
2018-12-19T06:31:57.796Z,62.36
2018-12-19T06:34:25.955Z,63.21
2018-12-19T06:36:54.115Z,63.87
2018-12-19T06:39:23.383Z,64.48
2018-12-19T06:41:51.556Z,66.06
2018-12-19T06:44:19.848Z,67.35
2018-12-19T06:46:48.019Z,68.23
2018-12-19T06:49:16.203Z,68.85
2018-12-19T06:51:44.431Z,69.37
2018-12-19T06:54:12.725Z,69.90
2018-12-19T06:56:40.900Z,69.88
2018-12-19T06:59:09.152Z,70.45
2018-12-19T07:01:37.395Z,70.62
2018-12-19T07:04:05.607Z,70.63
2018-12-19T07:06:33.796Z,70.73
2018-12-19T07:09:02.155Z,70.79
2018-12-19T07:11:30.407Z,70.71
2018-12-19T07:13:58.572Z,70.72
2018-12-19T07:16:26.920Z,70.59
2018-12-19T07:18:55.076Z,71.28
2018-12-19T07:21:23.251Z,70.99
2018-12-19T07:23:51.492Z,70.85
2018-12-19T07:26:20.523Z,70.91
2018-12-19T07:28:48.683Z,71.06
2018-12-19T07:31:16.839Z,70.81
2018-12-19T07:33:45.043Z,71.25
2018-12-19T07:36:13.211Z,70.86
2018-12-19T07:38:41.397Z,71.22
2018-12-19T07:41:09.555Z,71.34
2018-12-19T07:43:37.743Z,71.33
2018-12-19T07:46:05.903Z,71.17
2018-12-19T07:48:34.342Z,71.22
2018-12-19T07:51:02.504Z,71.58
2018-12-19T07:53:30.750Z,71.80
2018-12-19T07:55:59.890Z,71.55
2018-12-19T07:58:28.132Z,71.69
2018-12-19T08:00:56.297Z,72.17
2018-12-19T08:03:24.580Z,71.54
2018-12-19T08:05:53.018Z,71.63
2018-12-19T08:08:21.179Z,71.49
2018-12-19T08:10:52.167Z,71.37
2018-12-19T08:13:19.507Z,71.26
2018-12-19T08:15:47.752Z,71.18
2018-12-19T08:18:15.956Z,71.47
2018-12-19T08:20:44.108Z,70.73
2018-12-19T08:23:12.339Z,71.42
2018-12-19T08:25:40.506Z,71.28
2018-12-19T08:28:08.695Z,70.42
2018-12-19T08:30:36.860Z,70.49
2018-12-19T08:33:05.255Z,70.66
2018-12-19T08:35:33.415Z,70.86
2018-12-19T08:38:01.956Z,70.76
2018-12-19T08:40:30.260Z,70.61
2018-12-19T08:42:58.435Z,70.13
2018-12-19T08:45:26.884Z,69.70
2018-12-19T08:47:55.099Z,70.13
2018-12-19T08:50:23.295Z,70.19
2018-12-19T08:52:51.552Z,69.60
2018-12-19T08:55:19.731Z,70.13
2018-12-19T08:57:47.895Z,70.39
2018-12-19T09:00:16.151Z,70.03
2018-12-19T09:02:44.312Z,70.02
2018-12-19T09:05:12.554Z,70.05
2018-12-19T09:07:40.707Z,69.92
2018-12-19T09:10:09.516Z,69.49
2018-12-19T09:12:37.680Z,69.65
2018-12-19T09:15:06.745Z,68.87
2018-12-19T09:17:35.831Z,69.00
2018-12-19T09:20:05.331Z,68.57
2018-12-19T09:22:33.654Z,68.46
2018-12-19T09:25:01.955Z,68.46
2018-12-19T09:27:30.321Z,68.35
2018-12-19T09:29:58.488Z,68.02
2018-12-19T09:32:26.650Z,67.62
2018-12-19T09:34:54.816Z,68.05
2018-12-19T09:37:22.968Z,68.10
2018-12-19T09:39:51.184Z,68.49
2018-12-19T09:42:19.346Z,68.73
2018-12-19T09:44:47.536Z,68.55
2018-12-19T09:47:15.700Z,68.97
2018-12-19T09:49:43.868Z,68.37
2018-12-19T09:52:12.164Z,67.87
2018-12-19T09:54:40.356Z,68.18
2018-12-19T09:57:08.521Z,68.23
2018-12-19T09:59:36.686Z,68.22
2018-12-19T10:02:05.365Z,67.62
2018-12-19T10:04:33.539Z,67.93
2018-12-19T10:07:01.708Z,68.16
2018-12-19T10:09:29.891Z,67.67
2018-12-19T10:11:58.079Z,67.17
2018-12-19T10:14:26.236Z,67.58
2018-12-19T10:16:54.544Z,67.56
2018-12-19T10:19:22.695Z,67.86
2018-12-19T10:21:50.976Z,67.63
2018-12-19T10:24:21.126Z,67.16
2018-12-19T10:26:49.376Z,67.56
2018-12-19T10:29:17.544Z,67.43
2018-12-19T10:31:45.706Z,66.87
2018-12-19T10:34:13.864Z,66.89
2018-12-19T10:36:42.074Z,66.18
2018-12-19T10:39:14.923Z,66.90
2018-12-19T10:41:43.139Z,66.91
2018-12-19T10:44:11.626Z,66.56
2018-12-19T10:46:39.883Z,67.02
2018-12-19T10:49:08.040Z,65.98
2018-12-19T10:51:36.211Z,66.94
2018-12-19T10:54:04.632Z,66.51
2018-12-19T10:56:32.801Z,66.70
2018-12-19T10:59:01.098Z,66.22
2018-12-19T11:01:29.344Z,66.75
2018-12-19T11:03:57.535Z,66.89
2018-12-19T11:06:25.783Z,66.21
2018-12-19T11:08:53.988Z,66.47
2018-12-19T11:11:22.146Z,66.40
2018-12-19T11:13:50.492Z,65.97
2018-12-19T11:16:18.649Z,66.07
2018-12-19T11:18:46.824Z,66.39
2018-12-19T11:21:14.976Z,66.22
2018-12-19T11:23:43.147Z,66.13
2018-12-19T11:26:11.307Z,65.64
2018-12-19T11:28:39.479Z,65.57
2018-12-19T11:31:07.660Z,65.95
2018-12-19T11:33:35.835Z,65.37
2018-12-19T11:36:04.211Z,65.31
2018-12-19T11:38:32.391Z,65.37
2018-12-19T11:41:00.544Z,64.96
2018-12-19T11:43:28.781Z,65.28
2018-12-19T11:45:56.931Z,65.44
2018-12-19T11:48:25.096Z,65.21
2018-12-19T11:50:53.254Z,65.57
2018-12-19T11:53:21.548Z,65.77
2018-12-19T11:55:49.803Z,65.17
2018-12-19T11:58:17.983Z,64.97
2018-12-19T12:00:46.151Z,65.18
2018-12-19T12:03:14.441Z,65.53
2018-12-19T12:05:42.666Z,65.09
2018-12-19T12:08:10.879Z,65.22
2018-12-19T12:10:39.063Z,64.89
2018-12-19T12:13:07.242Z,65.28
2018-12-19T12:15:35.564Z,64.12
2018-12-19T12:18:03.756Z,65.14
2018-12-19T12:20:31.924Z,65.22
2018-12-19T12:23:00.135Z,65.11
2018-12-19T12:25:28.399Z,64.07
2018-12-19T12:27:56.587Z,65.13
2018-12-19T12:30:24.876Z,64.83
2018-12-19T12:32:53.149Z,64.87
2018-12-19T12:35:21.332Z,65.21
2018-12-19T12:37:50.109Z,65.52
2018-12-19T12:40:18.361Z,65.50
2018-12-19T12:42:46.663Z,65.41
2018-12-19T12:45:15.136Z,65.84
2018-12-19T12:47:43.383Z,65.62
2018-12-19T12:50:11.610Z,65.60
2018-12-19T12:52:39.840Z,65.54
2018-12-19T12:55:08.509Z,65.57
2018-12-19T12:57:37.689Z,65.21
2018-12-19T13:00:07.117Z,64.92
2018-12-19T13:02:35.340Z,65.49
2018-12-19T13:05:04.088Z,64.88
2018-12-19T13:07:32.249Z,65.32
2018-12-19T13:10:00.455Z,65.19
2018-12-19T13:12:29.886Z,65.44
2018-12-19T13:14:58.167Z,66.05
2018-12-19T13:17:26.740Z,65.05
2018-12-19T13:19:55.020Z,65.31
2018-12-19T13:22:23.250Z,65.49
2018-12-19T13:24:51.476Z,64.73
2018-12-19T13:27:19.785Z,65.18
2018-12-19T13:29:47.939Z,64.90
2018-12-19T13:32:16.492Z,65.60
2018-12-19T13:34:44.832Z,65.68
2018-12-19T13:37:13.178Z,65.21
2018-12-19T13:39:41.339Z,65.70
2018-12-19T13:42:09.537Z,65.91
2018-12-19T13:44:37.692Z,65.79
2018-12-19T13:47:05.915Z,65.35
2018-12-19T13:49:34.091Z,65.65
2018-12-19T13:52:02.324Z,65.41
2018-12-19T13:54:30.545Z,65.32
2018-12-19T13:56:58.785Z,65.11
2018-12-19T13:59:26.963Z,64.02
2018-12-19T14:01:55.224Z,64.68
2018-12-19T14:04:23.379Z,65.31
2018-12-19T14:06:51.744Z,64.92
2018-12-19T14:09:19.949Z,64.89
2018-12-19T14:11:48.185Z,64.90
2018-12-19T14:14:16.422Z,65.11
2018-12-19T14:16:44.723Z,65.38
2018-12-19T14:19:12.875Z,65.21
2018-12-19T14:21:41.127Z,65.36
2018-12-19T14:24:09.327Z,65.42
2018-12-19T14:26:37.488Z,65.17
2018-12-19T14:29:05.735Z,64.50
2018-12-19T14:31:34.023Z,65.14
2018-12-19T14:34:02.215Z,65.00
2018-12-19T14:36:30.394Z,65.14
2018-12-19T14:38:58.588Z,65.80
2018-12-19T14:41:26.747Z,66.29
2018-12-19T14:43:55.083Z,66.36
2018-12-19T14:46:23.905Z,66.02
2018-12-19T14:48:52.086Z,66.29
2018-12-19T14:51:20.392Z,66.94
2018-12-19T14:53:48.568Z,66.67
2018-12-19T14:56:16.824Z,66.25
2018-12-19T14:58:44.994Z,66.38
2018-12-19T15:01:13.177Z,66.72
2018-12-19T15:03:41.484Z,66.91
2018-12-19T15:06:10.887Z,66.79
2018-12-19T15:08:39.301Z,66.04
2018-12-19T15:11:07.555Z,66.26
2018-12-19T15:13:35.983Z,66.38
2018-12-19T15:16:04.331Z,66.49
2018-12-19T15:18:32.684Z,65.93
2018-12-19T15:21:00.923Z,66.22
2018-12-19T15:23:29.203Z,66.16
2018-12-19T15:25:57.467Z,65.95
2018-12-19T15:28:25.660Z,65.82
2018-12-19T15:30:54.033Z,66.22
2018-12-19T15:33:22.296Z,65.96
2018-12-19T15:35:50.458Z,65.76
2018-12-19T15:38:18.823Z,65.76
2018-12-19T15:40:46.980Z,65.82
2018-12-19T15:43:15.198Z,65.71
2018-12-19T15:45:43.438Z,65.52
2018-12-19T15:48:11.771Z,65.50
2018-12-19T15:50:39.961Z,65.79
2018-12-19T15:53:08.331Z,65.68
2018-12-19T15:55:36.603Z,65.42
2018-12-19T15:58:09.536Z,65.47
2018-12-19T16:00:38.291Z,66.29
2018-12-19T16:03:07.663Z,66.12
2018-12-19T16:05:35.907Z,66.51
2018-12-19T16:08:04.349Z,66.33
2018-12-19T16:10:32.659Z,66.36
2018-12-19T16:13:01.883Z,66.04
2018-12-19T16:15:30.147Z,66.47
2018-12-19T16:17:58.360Z,66.22
2018-12-19T16:20:26.528Z,66.12
2018-12-19T16:22:54.755Z,66.47
2018-12-19T16:25:22.997Z,66.27
2018-12-19T16:27:51.309Z,66.03
2018-12-19T16:30:19.549Z,66.31
2018-12-19T16:32:47.716Z,66.02
2018-12-19T16:35:16.092Z,66.28
2018-12-19T16:37:44.366Z,66.10
2018-12-19T16:40:12.647Z,66.00
2018-12-19T16:42:46.051Z,65.96
2018-12-19T16:45:11.156Z,66.64
2018-12-19T16:47:39.568Z,66.31
2018-12-19T16:50:08.003Z,65.89
2018-12-19T16:52:36.182Z,66.33
2018-12-19T16:55:04.568Z,65.96
2018-12-19T16:57:32.804Z,66.45
2018-12-19T17:00:01.101Z,66.25
2018-12-19T17:02:29.432Z,66.17
2018-12-19T17:04:57.626Z,65.91
2018-12-19T17:07:25.863Z,66.56
2018-12-19T17:09:54.125Z,66.25
2018-12-19T17:12:22.364Z,66.34
2018-12-19T17:14:50.655Z,66.32
2018-12-19T17:17:18.967Z,66.09
2018-12-19T17:19:47.247Z,65.86
2018-12-19T17:22:15.423Z,65.72
2018-12-19T17:24:43.591Z,66.06
2018-12-19T17:27:11.787Z,67.01
2018-12-19T17:29:39.988Z,67.38
2018-12-19T17:32:08.396Z,67.86
2018-12-19T17:34:36.724Z,68.08
2018-12-19T17:37:04.943Z,67.92
2018-12-19T17:39:33.117Z,68.54
2018-12-19T17:42:01.320Z,67.98
2018-12-19T17:44:29.498Z,67.89
2018-12-19T17:46:57.804Z,67.93
2018-12-19T17:49:26.061Z,68.42
2018-12-19T17:51:54.328Z,68.08
2018-12-19T17:54:22.571Z,67.83
2018-12-19T17:56:50.835Z,68.39
2018-12-19T17:59:19.076Z,68.03
2018-12-19T18:01:47.720Z,68.41
2018-12-19T18:04:16.027Z,68.89
2018-12-19T18:06:44.200Z,69.72
2018-12-19T18:09:12.484Z,69.46
2018-12-19T18:11:40.748Z,69.48
2018-12-19T18:14:09.384Z,69.59
2018-12-19T18:16:37.729Z,69.58
2018-12-19T18:19:05.999Z,69.49
2018-12-19T18:21:34.343Z,69.78
2018-12-19T18:24:02.613Z,69.96
2018-12-19T18:26:30.831Z,70.25
2018-12-19T18:28:59.120Z,70.24
2018-12-19T18:31:27.395Z,70.54
2018-12-19T18:33:55.603Z,70.24
2018-12-19T18:36:23.764Z,70.21
2018-12-19T18:38:51.995Z,69.88
2018-12-19T18:41:20.292Z,69.55
2018-12-19T18:43:48.457Z,69.34
2018-12-19T18:46:16.756Z,69.11
2018-12-19T18:48:45.020Z,69.69
2018-12-19T18:51:13.307Z,69.69
2018-12-19T18:53:41.467Z,69.32
2018-12-19T18:56:09.632Z,69.18
2018-12-19T18:58:37.794Z,69.48
2018-12-19T19:01:06.170Z,68.89
2018-12-19T19:03:34.466Z,68.99
2018-12-19T19:06:02.971Z,69.61
2018-12-19T19:08:31.231Z,69.21
2018-12-19T19:10:59.529Z,69.00
2018-12-19T19:13:27.685Z,69.16
2018-12-19T19:15:55.871Z,69.05
2018-12-19T19:18:24.096Z,68.94
2018-12-19T19:20:52.264Z,68.92
2018-12-19T19:23:20.444Z,68.84
2018-12-19T19:25:48.698Z,68.59
2018-12-19T19:28:16.895Z,68.96
2018-12-19T19:30:45.347Z,68.35
2018-12-19T19:33:13.601Z,68.34
2018-12-19T19:35:41.886Z,68.81
2018-12-19T19:38:10.176Z,67.88
2018-12-19T19:40:38.339Z,68.51
2018-12-19T19:43:06.644Z,68.55
2018-12-19T19:45:34.988Z,68.38
2018-12-19T19:48:03.143Z,68.65
2018-12-19T19:50:31.440Z,68.21
2018-12-19T19:52:59.623Z,68.30
2018-12-19T19:55:27.891Z,68.75
2018-12-19T19:57:56.067Z,68.59
2018-12-19T20:00:30.311Z,68.81
2018-12-19T20:02:58.607Z,68.83
2018-12-19T20:05:26.837Z,69.20
2018-12-19T20:07:55.023Z,68.80
2018-12-19T20:10:23.269Z,69.08
2018-12-19T20:12:51.439Z,69.20
2018-12-19T20:15:19.602Z,68.94
2018-12-19T20:17:47.931Z,69.06
2018-12-19T20:20:16.610Z,68.90
2018-12-19T20:22:45.086Z,69.37
2018-12-19T20:25:13.259Z,68.79
2018-12-19T20:27:41.521Z,69.32
2018-12-19T20:30:11.570Z,68.88
2018-12-19T20:32:39.747Z,69.37
2018-12-19T20:35:08.232Z,69.20
2018-12-19T20:37:36.396Z,68.87
2018-12-19T20:40:05.392Z,69.08
2018-12-19T20:42:33.556Z,69.38
2018-12-19T20:45:01.772Z,69.22
2018-12-19T20:47:29.939Z,68.65
2018-12-19T20:49:58.136Z,69.21
2018-12-19T20:52:26.370Z,68.95
2018-12-19T20:54:54.535Z,68.80
2018-12-19T20:57:22.815Z,68.65
2018-12-19T20:59:51.089Z,68.95
2018-12-19T21:02:19.496Z,69.10
2018-12-19T21:04:47.653Z,68.65
2018-12-19T21:07:15.812Z,69.08
2018-12-19T21:09:44.268Z,68.90
2018-12-19T21:12:12.431Z,69.03
2018-12-19T21:14:40.803Z,68.49
2018-12-19T21:17:14.283Z,69.06
2018-12-19T21:19:42.451Z,68.83
2018-12-19T21:22:11.218Z,68.63
2018-12-19T21:24:39.477Z,68.93
2018-12-19T21:27:07.768Z,68.40
2018-12-19T21:29:36.068Z,68.35
2018-12-19T21:32:04.231Z,68.99
2018-12-19T21:34:32.408Z,68.58
2018-12-19T21:37:02.108Z,68.52
2018-12-19T21:39:30.765Z,68.85
2018-12-19T21:41:58.975Z,68.73
2018-12-19T21:44:27.368Z,68.71
2018-12-19T21:46:55.626Z,68.02
2018-12-19T21:49:24.008Z,68.24
2018-12-19T21:51:52.175Z,68.58
2018-12-19T21:54:20.625Z,68.45
2018-12-19T21:56:48.873Z,68.15
2018-12-19T21:59:17.194Z,68.38
2018-12-19T22:01:45.348Z,68.49
2018-12-19T22:04:13.642Z,68.61
2018-12-19T22:06:41.980Z,68.85
2018-12-19T22:09:10.459Z,68.73
2018-12-19T22:11:38.718Z,69.10
2018-12-19T22:14:06.996Z,68.99
2018-12-19T22:16:40.395Z,68.51
2018-12-19T22:19:08.596Z,68.49
2018-12-19T22:21:36.916Z,68.37
2018-12-19T22:24:05.115Z,68.24
2018-12-19T22:26:33.451Z,68.38
2018-12-19T22:29:01.617Z,69.03
2018-12-19T22:31:29.926Z,69.02
2018-12-19T22:33:58.347Z,69.05
2018-12-19T22:36:26.900Z,69.14
2018-12-19T22:38:55.205Z,68.61
2018-12-19T22:41:23.370Z,68.85
2018-12-19T22:43:51.530Z,68.82
2018-12-19T22:46:19.735Z,68.79
2018-12-19T22:48:47.988Z,68.74
2018-12-19T22:51:16.229Z,68.87
2018-12-19T22:53:44.533Z,69.35
2018-12-19T22:56:12.771Z,68.88
2018-12-19T22:58:41.054Z,68.86
2018-12-19T23:01:14.766Z,68.32
2018-12-19T23:03:48.440Z,68.45
2018-12-19T23:06:16.655Z,68.36
2018-12-19T23:08:45.155Z,68.12
2018-12-19T23:11:13.545Z,68.13
2018-12-19T23:13:41.977Z,68.43
2018-12-19T23:16:10.304Z,68.38
2018-12-19T23:18:38.725Z,68.45
2018-12-19T23:21:07.087Z,68.70
2018-12-19T23:23:35.239Z,68.46
2018-12-19T23:26:03.859Z,68.91
2018-12-19T23:28:32.086Z,69.21
2018-12-19T23:31:00.493Z,68.81
2018-12-19T23:33:28.647Z,68.18
2018-12-19T23:35:57.160Z,68.53
2018-12-19T23:38:25.522Z,68.62
2018-12-19T23:40:53.887Z,68.43
2018-12-19T23:43:22.359Z,68.52
2018-12-19T23:45:50.710Z,68.60
2018-12-19T23:48:19.070Z,68.61
2018-12-19T23:50:47.391Z,68.82
2018-12-19T23:53:15.757Z,68.73
2018-12-19T23:55:44.233Z,68.07
2018-12-19T23:58:12.645Z,68.32
